createdAt,value
2019-03-30T00:02:28.814Z,14.93
2019-03-30T00:05:03.713Z,16.20
2019-03-30T00:07:36.024Z,14.55
2019-03-30T00:10:09.967Z,16.50
2019-03-30T00:12:42.239Z,16.55
2019-03-30T00:15:14.515Z,16.20
2019-03-30T00:17:47.210Z,15.18
2019-03-30T00:20:19.852Z,13.58
2019-03-30T00:22:52.145Z,14.35
2019-03-30T00:25:24.438Z,13.75
2019-03-30T00:27:56.742Z,14.47
2019-03-30T00:30:29.003Z,13.35
2019-03-30T00:33:01.256Z,13.43
2019-03-30T00:35:33.625Z,14.23
2019-03-30T00:38:05.900Z,13.58
2019-03-30T00:40:38.590Z,12.47
2019-03-30T00:43:10.843Z,13.30
2019-03-30T00:45:43.107Z,13.68
2019-03-30T00:48:15.417Z,13.43
2019-03-30T00:50:47.688Z,13.78
2019-03-30T00:53:19.951Z,14.38
2019-03-30T00:55:52.251Z,13.20
2019-03-30T00:58:25.796Z,12.05
2019-03-30T01:00:58.294Z,12.20
2019-03-30T01:03:30.585Z,13.75
2019-03-30T01:06:02.851Z,12.15
2019-03-30T01:08:35.250Z,11.63
2019-03-30T01:11:08.741Z,12.00
2019-03-30T01:13:41.504Z,12.85
2019-03-30T01:16:13.881Z,14.00
2019-03-30T01:18:46.137Z,12.95
2019-03-30T01:21:18.430Z,12.15
2019-03-30T01:23:50.852Z,12.40
2019-03-30T01:26:23.112Z,14.53
2019-03-30T01:28:55.426Z,12.98
2019-03-30T01:31:27.723Z,13.13
2019-03-30T01:33:59.983Z,13.00
2019-03-30T01:36:32.291Z,14.13
2019-03-30T01:39:05.853Z,14.55
2019-03-30T01:41:38.134Z,13.38
2019-03-30T01:44:10.393Z,14.07
2019-03-30T01:46:42.733Z,13.48
2019-03-30T01:49:14.987Z,14.40
2019-03-30T01:51:47.251Z,13.93
2019-03-30T01:54:19.519Z,13.70
2019-03-30T01:56:51.798Z,13.70
2019-03-30T01:59:24.050Z,13.08
2019-03-30T02:01:56.304Z,14.30
2019-03-30T02:04:28.686Z,15.05
2019-03-30T02:07:00.955Z,14.07
2019-03-30T02:09:33.216Z,14.05
2019-03-30T02:12:06.206Z,14.13
2019-03-30T02:14:38.470Z,15.90
2019-03-30T02:17:10.854Z,14.20
2019-03-30T02:19:43.164Z,14.50
2019-03-30T02:22:15.453Z,13.58
2019-03-30T02:24:47.746Z,14.55
2019-03-30T02:27:19.992Z,15.35
2019-03-30T02:29:52.246Z,12.95
2019-03-30T02:32:24.507Z,13.15
2019-03-30T02:34:56.755Z,13.75
2019-03-30T02:37:29.034Z,12.35
2019-03-30T02:40:03.132Z,14.33
2019-03-30T02:42:35.376Z,12.95
2019-03-30T02:45:08.670Z,12.95
2019-03-30T02:47:41.080Z,14.65
2019-03-30T02:50:13.348Z,14.65
2019-03-30T02:52:45.661Z,13.32
2019-03-30T02:55:18.354Z,13.62
2019-03-30T02:57:50.611Z,12.30
2019-03-30T03:00:22.893Z,13.60
2019-03-30T03:02:55.395Z,12.90
2019-03-30T03:05:27.646Z,12.82
2019-03-30T03:07:59.935Z,14.05
2019-03-30T03:10:32.178Z,13.78
2019-03-30T03:13:04.980Z,13.70
2019-03-30T03:15:37.260Z,13.20
2019-03-30T03:18:09.714Z,12.93
2019-03-30T03:20:42.117Z,12.90
2019-03-30T03:23:14.371Z,13.10
2019-03-30T03:25:46.636Z,13.35
2019-03-30T03:28:18.886Z,12.30
2019-03-30T03:30:51.162Z,13.70
2019-03-30T03:33:23.401Z,12.47
2019-03-30T03:35:55.665Z,12.70
2019-03-30T03:38:28.282Z,13.22
2019-03-30T03:41:00.543Z,12.58
2019-03-30T03:43:34.462Z,13.15
2019-03-30T03:46:06.713Z,12.82
2019-03-30T03:48:40.147Z,13.03
2019-03-30T03:51:25.889Z,12.68
2019-03-30T03:53:47.795Z,13.78
2019-03-30T03:56:21.194Z,12.07
2019-03-30T03:58:53.458Z,13.35
2019-03-30T04:01:25.702Z,11.97
2019-03-30T04:03:58.028Z,12.55
2019-03-30T04:06:30.313Z,12.78
2019-03-30T04:09:04.869Z,13.43
2019-03-30T04:11:38.952Z,12.43
2019-03-30T04:14:11.802Z,12.40
2019-03-30T04:16:44.202Z,13.98
2019-03-30T04:19:16.506Z,13.98
2019-03-30T04:21:49.261Z,13.45
2019-03-30T04:24:21.566Z,12.95
2019-03-30T04:26:53.871Z,12.75
2019-03-30T04:29:26.124Z,14.58
2019-03-30T04:31:58.403Z,12.18
2019-03-30T04:34:31.774Z,13.58
2019-03-30T04:37:04.040Z,13.15
2019-03-30T04:39:36.342Z,12.78
2019-03-30T04:42:08.639Z,12.85
2019-03-30T04:44:40.934Z,13.53
2019-03-30T04:47:13.187Z,12.93
2019-03-30T04:49:45.491Z,12.85
2019-03-30T04:52:17.732Z,12.65
2019-03-30T04:54:50.034Z,12.13
2019-03-30T04:57:22.280Z,12.82
2019-03-30T04:59:54.660Z,12.35
2019-03-30T05:02:26.972Z,11.93
2019-03-30T05:04:59.221Z,12.43
2019-03-30T05:07:31.678Z,12.25
2019-03-30T05:10:05.722Z,11.90
2019-03-30T05:12:38.063Z,13.03
2019-03-30T05:15:10.359Z,12.70
2019-03-30T05:17:47.463Z,12.88
2019-03-30T05:20:16.612Z,11.73
2019-03-30T05:22:51.344Z,13.03
2019-03-30T05:25:22.974Z,11.95
2019-03-30T05:27:55.275Z,11.43
2019-03-30T05:30:27.575Z,11.53
2019-03-30T05:33:05.899Z,13.32
2019-03-30T05:35:33.849Z,13.25
2019-03-30T05:38:06.551Z,11.08
2019-03-30T05:40:38.852Z,13.15
2019-03-30T05:43:11.309Z,12.65
2019-03-30T05:45:43.625Z,12.75
2019-03-30T05:48:16.242Z,12.53
2019-03-30T05:50:48.707Z,12.65
2019-03-30T05:53:20.961Z,12.03
2019-03-30T05:55:53.265Z,11.73
2019-03-30T05:58:25.511Z,11.83
2019-03-30T06:00:57.828Z,11.30
2019-03-30T06:03:30.090Z,11.85
2019-03-30T06:06:02.347Z,11.53
2019-03-30T06:08:34.636Z,11.95
2019-03-30T06:11:07.139Z,11.80
2019-03-30T06:13:39.388Z,11.90
2019-03-30T06:16:11.678Z,10.98
2019-03-30T06:18:44.027Z,10.55
2019-03-30T06:21:16.277Z,11.63
2019-03-30T06:23:49.151Z,12.00
2019-03-30T06:26:21.427Z,12.75
2019-03-30T06:28:55.032Z,11.73
2019-03-30T06:31:27.344Z,10.68
2019-03-30T06:33:59.656Z,12.90
2019-03-30T06:36:31.968Z,12.05
2019-03-30T06:39:05.476Z,12.95
2019-03-30T06:41:37.735Z,12.15
2019-03-30T06:44:10.025Z,12.05
2019-03-30T06:46:42.408Z,11.33
2019-03-30T06:49:14.671Z,12.35
2019-03-30T06:51:46.967Z,11.68
2019-03-30T06:54:19.267Z,11.25
2019-03-30T06:56:51.595Z,11.57
2019-03-30T06:59:23.843Z,11.97
2019-03-30T07:01:56.177Z,11.85
2019-03-30T07:04:28.468Z,12.88
2019-03-30T07:07:00.861Z,11.30
2019-03-30T07:09:33.322Z,12.50
2019-03-30T07:12:05.592Z,11.78
2019-03-30T07:14:37.854Z,10.60
2019-03-30T07:17:11.830Z,12.53
2019-03-30T07:19:45.526Z,12.55
2019-03-30T07:22:17.823Z,12.37
2019-03-30T07:24:50.141Z,11.53
2019-03-30T07:27:22.400Z,13.08
2019-03-30T07:29:54.694Z,13.48
2019-03-30T07:32:26.963Z,12.98
2019-03-30T07:34:59.215Z,12.18
2019-03-30T07:37:31.764Z,11.43
2019-03-30T07:40:04.513Z,10.85
2019-03-30T07:42:36.789Z,12.18
2019-03-30T07:45:09.156Z,12.55
2019-03-30T07:47:41.766Z,12.37
2019-03-30T07:50:14.042Z,11.55
2019-03-30T07:52:46.296Z,12.25
2019-03-30T07:55:18.610Z,12.45
2019-03-30T07:57:50.966Z,14.53
2019-03-30T08:00:25.892Z,16.90
2019-03-30T08:02:57.462Z,15.43
2019-03-30T08:05:29.739Z,17.48
2019-03-30T08:08:02.072Z,15.38
2019-03-30T08:10:34.486Z,15.72
2019-03-30T08:13:06.818Z,15.40
2019-03-30T08:15:39.078Z,14.87
2019-03-30T08:18:11.372Z,13.62
2019-03-30T08:20:43.689Z,14.10
2019-03-30T08:23:15.944Z,13.93
2019-03-30T08:25:48.196Z,15.28
2019-03-30T08:28:20.991Z,14.35
2019-03-30T08:30:53.375Z,14.47
2019-03-30T08:33:25.696Z,14.00
2019-03-30T08:35:57.984Z,10.82
2019-03-30T08:38:30.306Z,11.03
2019-03-30T08:41:04.587Z,11.25
2019-03-30T08:43:37.751Z,10.75
2019-03-30T08:46:10.021Z,11.68
2019-03-30T08:48:42.286Z,11.53
2019-03-30T08:51:14.546Z,11.43
2019-03-30T08:53:54.569Z,10.85
2019-03-30T08:56:20.807Z,10.38
2019-03-30T08:58:53.108Z,9.75
2019-03-30T09:01:25.615Z,8.60
2019-03-30T09:03:57.872Z,8.28
2019-03-30T09:06:30.140Z,8.40
2019-03-30T09:09:02.529Z,6.87
2019-03-30T09:11:36.036Z,8.35
2019-03-30T09:14:08.295Z,7.30
2019-03-30T09:16:40.590Z,8.45
2019-03-30T09:19:14.041Z,7.60
2019-03-30T09:21:46.356Z,7.78
2019-03-30T09:24:18.709Z,8.53
2019-03-30T09:26:51.085Z,7.12
2019-03-30T09:29:23.395Z,7.55
2019-03-30T09:31:55.926Z,7.42
2019-03-30T09:34:28.205Z,7.95
2019-03-30T09:37:01.009Z,8.20
2019-03-30T09:39:33.315Z,8.23
2019-03-30T09:42:05.859Z,8.43
2019-03-30T09:44:38.193Z,7.55
2019-03-30T09:47:10.594Z,9.55
2019-03-30T09:49:42.884Z,8.68
2019-03-30T09:52:15.156Z,8.88
2019-03-30T09:54:47.460Z,8.10
2019-03-30T09:57:20.867Z,8.78
2019-03-30T09:59:53.424Z,7.92
2019-03-30T10:02:25.705Z,9.53
2019-03-30T10:04:57.963Z,9.15
2019-03-30T10:07:30.262Z,9.20
2019-03-30T10:10:02.527Z,8.38
2019-03-30T10:12:34.782Z,9.15
2019-03-30T10:15:07.378Z,9.33
2019-03-30T10:17:39.790Z,8.73
2019-03-30T10:20:12.037Z,9.53
2019-03-30T10:22:44.339Z,9.40
2019-03-30T10:25:16.646Z,9.48
2019-03-30T10:27:50.520Z,8.85
2019-03-30T10:30:23.121Z,8.90
2019-03-30T10:32:55.383Z,9.00
2019-03-30T10:35:27.700Z,8.65
2019-03-30T10:37:59.958Z,7.75
2019-03-30T10:40:32.404Z,9.58
2019-03-30T10:43:06.176Z,7.75
2019-03-30T10:45:38.493Z,7.70
2019-03-30T10:48:10.755Z,7.92
2019-03-30T10:50:43.074Z,7.97
2019-03-30T10:53:16.430Z,7.92
2019-03-30T10:55:48.705Z,8.23
2019-03-30T10:58:20.978Z,7.92
2019-03-30T11:00:53.239Z,7.35
2019-03-30T11:03:25.490Z,7.05
2019-03-30T11:05:57.745Z,8.23
2019-03-30T11:08:30.011Z,6.87
2019-03-30T11:11:02.409Z,6.50
2019-03-30T11:13:34.666Z,6.53
2019-03-30T11:16:08.984Z,6.20
2019-03-30T11:18:42.453Z,7.35
2019-03-30T11:21:14.704Z,6.15
2019-03-30T11:23:46.992Z,6.25
2019-03-30T11:26:19.669Z,6.15
2019-03-30T11:28:52.230Z,6.40
2019-03-30T11:31:24.608Z,5.78
2019-03-30T11:33:56.913Z,6.72
2019-03-30T11:36:29.158Z,5.28
2019-03-30T11:39:01.415Z,5.58
2019-03-30T11:41:34.453Z,6.00
2019-03-30T11:44:06.710Z,5.47
2019-03-30T11:46:38.988Z,6.78
2019-03-30T11:49:11.360Z,5.70
2019-03-30T11:51:43.662Z,6.25
2019-03-30T11:54:16.155Z,6.25
2019-03-30T11:56:48.424Z,6.03
2019-03-30T11:59:20.675Z,5.67
2019-03-30T12:01:53.038Z,5.95
2019-03-30T12:04:25.360Z,6.22
2019-03-30T12:06:57.819Z,6.03
2019-03-30T12:09:30.273Z,6.03
2019-03-30T12:12:02.529Z,6.40
2019-03-30T12:14:34.818Z,5.97
2019-03-30T12:17:08.956Z,5.40
2019-03-30T12:19:41.267Z,4.80
2019-03-30T12:22:14.819Z,5.30
2019-03-30T12:24:47.522Z,5.47
2019-03-30T12:27:19.836Z,5.42
2019-03-30T12:29:52.110Z,5.10
2019-03-30T12:32:24.381Z,5.58
2019-03-30T12:34:56.752Z,4.55
2019-03-30T12:37:30.007Z,5.70
2019-03-30T12:40:02.245Z,4.33
2019-03-30T12:42:34.483Z,4.75
2019-03-30T12:45:06.762Z,4.70
2019-03-30T12:47:38.998Z,3.80
2019-03-30T12:50:11.654Z,3.42
2019-03-30T12:52:43.927Z,5.03
2019-03-30T12:55:16.221Z,4.75
2019-03-30T12:57:48.466Z,4.40
2019-03-30T13:00:22.791Z,4.10
2019-03-30T13:02:55.052Z,4.12
2019-03-30T13:05:27.344Z,4.22
2019-03-30T13:07:59.681Z,4.10
2019-03-30T13:10:31.972Z,4.17
2019-03-30T13:13:04.205Z,4.30
2019-03-30T13:15:36.561Z,3.87
2019-03-30T13:18:09.220Z,4.00
2019-03-30T13:20:41.495Z,3.75
2019-03-30T13:23:13.770Z,3.90
2019-03-30T13:25:46.103Z,4.58
2019-03-30T13:28:18.960Z,4.03
2019-03-30T13:30:51.193Z,3.87
2019-03-30T13:33:23.458Z,5.00
2019-03-30T13:35:55.691Z,3.55
2019-03-30T13:38:27.930Z,4.17
2019-03-30T13:41:00.168Z,3.95
2019-03-30T13:43:32.406Z,4.15
2019-03-30T13:46:04.651Z,3.77
2019-03-30T13:48:36.904Z,4.40
2019-03-30T13:51:09.836Z,4.62
2019-03-30T13:53:42.142Z,4.70
2019-03-30T13:56:17.444Z,4.55
2019-03-30T13:58:48.446Z,5.83
2019-03-30T14:01:20.783Z,6.00
2019-03-30T14:03:53.092Z,6.28
2019-03-30T14:06:25.330Z,4.95
2019-03-30T14:08:57.605Z,4.67
2019-03-30T14:11:29.846Z,4.75
2019-03-30T14:14:02.556Z,4.70
2019-03-30T14:16:34.820Z,5.17
2019-03-30T14:19:07.085Z,4.70
2019-03-30T14:21:39.327Z,4.95
2019-03-30T14:24:11.574Z,4.95
2019-03-30T14:26:43.864Z,5.67
2019-03-30T14:29:18.078Z,5.50
2019-03-30T14:31:50.333Z,4.90
2019-03-30T14:34:22.691Z,5.90
2019-03-30T14:36:54.940Z,5.28
2019-03-30T14:39:27.233Z,4.85
2019-03-30T14:41:59.568Z,5.50
2019-03-30T14:44:33.171Z,5.12
2019-03-30T14:47:05.413Z,4.90
2019-03-30T14:49:37.683Z,4.17
2019-03-30T14:52:09.923Z,4.37
2019-03-30T14:54:52.590Z,4.65
2019-03-30T14:57:16.597Z,4.33
2019-03-30T14:59:48.852Z,5.12
2019-03-30T15:02:21.517Z,6.53
2019-03-30T15:18:30.817Z,7.65
2019-03-30T15:21:03.189Z,8.13
2019-03-30T15:23:34.955Z,7.78
2019-03-30T15:26:07.191Z,8.70
2019-03-30T15:28:39.002Z,9.78
2019-03-30T15:31:12.452Z,8.73
2019-03-30T15:33:44.233Z,8.70
2019-03-30T15:36:16.017Z,8.38
2019-03-30T15:38:47.816Z,8.53
2019-03-30T15:41:19.574Z,9.35
2019-03-30T15:43:52.257Z,8.40
2019-03-30T15:46:24.091Z,8.60
2019-03-30T15:48:55.835Z,7.50
2019-03-30T15:51:27.826Z,8.53
2019-03-30T15:53:59.673Z,8.05
2019-03-30T15:56:32.182Z,7.92
2019-03-30T15:59:06.873Z,7.62
2019-03-30T16:01:38.869Z,6.40
2019-03-30T16:04:10.755Z,7.90
2019-03-30T16:06:42.774Z,5.83
2019-03-30T16:09:14.563Z,6.80
2019-03-30T16:11:46.289Z,5.60
2019-03-30T16:14:18.056Z,4.75
2019-03-30T16:16:49.796Z,5.22
2019-03-30T16:19:21.548Z,5.50
2019-03-30T16:21:53.261Z,5.80
2019-03-30T16:24:25.019Z,4.62
2019-03-30T16:26:57.107Z,5.22
2019-03-30T16:29:29.439Z,4.60
2019-03-30T16:32:01.449Z,4.45
2019-03-30T16:34:33.566Z,4.25
2019-03-30T16:37:05.583Z,4.08
2019-03-30T16:39:37.842Z,5.10
2019-03-30T16:42:09.845Z,5.12
2019-03-30T16:44:42.501Z,4.40
2019-03-30T16:47:14.432Z,5.78
2019-03-30T16:49:46.674Z,3.60
2019-03-30T16:52:18.420Z,3.12
2019-03-30T16:54:50.193Z,4.28
2019-03-30T16:57:21.908Z,3.62
2019-03-30T16:59:53.715Z,4.10
2019-03-30T17:02:25.542Z,3.40
2019-03-30T17:04:57.641Z,4.28
2019-03-30T17:07:29.409Z,3.70
2019-03-30T17:10:02.048Z,4.42
2019-03-30T17:12:33.791Z,4.53
2019-03-30T17:15:06.084Z,4.12
2019-03-30T17:17:37.896Z,4.08
2019-03-30T17:20:09.619Z,3.67
2019-03-30T17:22:41.392Z,4.15
2019-03-30T17:25:13.225Z,3.70
2019-03-30T17:27:57.580Z,3.98
2019-03-30T17:30:18.494Z,3.85
2019-03-30T17:32:50.281Z,6.58
2019-03-30T17:35:22.027Z,4.47
2019-03-30T17:37:53.899Z,4.65
2019-03-30T17:40:25.981Z,4.92
2019-03-30T17:42:57.721Z,4.85
2019-03-30T17:45:29.673Z,4.45
2019-03-30T17:48:02.947Z,4.70
2019-03-30T17:50:35.120Z,5.03
2019-03-30T17:53:07.427Z,4.60
2019-03-30T17:55:39.660Z,5.12
2019-03-30T17:58:13.221Z,5.08
2019-03-30T18:00:45.180Z,4.60
2019-03-30T18:03:16.950Z,4.55
2019-03-30T18:05:48.755Z,4.60
2019-03-30T18:08:20.524Z,4.72
2019-03-30T18:10:52.345Z,4.80
2019-03-30T18:13:24.247Z,4.80
2019-03-30T18:15:56.036Z,3.75
2019-03-30T18:18:27.737Z,4.05
2019-03-30T18:20:59.511Z,3.50
2019-03-30T18:23:31.332Z,4.08
2019-03-30T18:26:03.126Z,4.78
2019-03-30T18:28:34.843Z,4.80
2019-03-30T18:31:06.691Z,4.62
2019-03-30T18:33:38.467Z,4.78
2019-03-30T18:36:10.702Z,5.67
2019-03-30T18:38:42.593Z,5.60
2019-03-30T18:41:14.374Z,5.65
2019-03-30T18:43:46.115Z,6.03
2019-03-30T18:46:17.900Z,5.97
2019-03-30T18:48:49.710Z,5.87
2019-03-30T18:51:21.877Z,7.55
2019-03-30T18:53:53.997Z,6.20
2019-03-30T18:56:27.916Z,6.33
2019-03-30T18:58:59.571Z,6.62
2019-03-30T19:01:31.720Z,6.58
2019-03-30T19:04:03.490Z,7.42
2019-03-30T19:06:35.213Z,6.35
2019-03-30T19:09:08.505Z,6.70
2019-03-30T19:11:40.555Z,6.35
2019-03-30T19:14:12.293Z,6.40
2019-03-30T19:16:44.490Z,7.12
2019-03-30T19:19:16.222Z,6.30
2019-03-30T19:21:48.032Z,8.03
2019-03-30T19:24:19.839Z,13.48
2019-03-30T19:26:51.904Z,12.58
2019-03-30T19:29:23.796Z,13.78
2019-03-30T19:31:56.022Z,14.18
2019-03-30T19:34:28.344Z,11.55
2019-03-30T19:37:00.644Z,12.88
2019-03-30T19:39:33.544Z,12.13
2019-03-30T19:42:05.367Z,10.58
2019-03-30T19:44:37.666Z,10.08
2019-03-30T19:47:09.481Z,10.98
2019-03-30T19:49:41.779Z,9.43
2019-03-30T19:52:13.539Z,9.85
2019-03-30T19:54:45.345Z,9.75
2019-03-30T19:57:17.177Z,8.78
2019-03-30T19:59:48.975Z,8.40
2019-03-30T20:02:20.803Z,7.35
2019-03-30T20:04:52.556Z,7.60
2019-03-30T20:07:24.499Z,9.00
2019-03-30T20:09:56.360Z,10.18
2019-03-30T20:12:28.214Z,8.65
2019-03-30T20:15:00.183Z,8.93
2019-03-30T20:17:32.485Z,10.50
2019-03-30T20:20:04.753Z,10.03
2019-03-30T20:22:36.581Z,10.90
2019-03-30T20:25:09.959Z,12.03
2019-03-30T20:27:41.797Z,12.55
2019-03-30T20:30:13.648Z,14.03
2019-03-30T20:32:45.470Z,13.43
2019-03-30T20:35:17.265Z,12.82
2019-03-30T20:37:49.054Z,12.63
2019-03-30T20:40:20.860Z,12.60
2019-03-30T20:42:52.872Z,12.82
2019-03-30T20:45:24.698Z,13.83
2019-03-30T20:47:57.081Z,12.50
2019-03-30T20:50:29.322Z,12.55
2019-03-30T20:53:01.198Z,12.63
2019-03-30T20:55:34.072Z,13.13
2019-03-30T20:58:05.914Z,10.82
2019-03-30T21:00:37.874Z,11.88
2019-03-30T21:03:09.709Z,11.93
2019-03-30T21:05:41.623Z,12.90
2019-03-30T21:08:13.708Z,13.68
2019-03-30T21:10:45.489Z,13.90
2019-03-30T21:13:17.311Z,14.23
2019-03-30T21:15:49.157Z,13.93
2019-03-30T21:18:20.975Z,13.32
2019-03-30T21:20:52.752Z,14.38
2019-03-30T21:23:24.550Z,15.30
2019-03-30T21:25:56.341Z,13.43
2019-03-30T21:28:28.379Z,14.28
2019-03-30T21:31:00.234Z,16.12
2019-03-30T21:33:32.456Z,13.75
2019-03-30T21:36:04.265Z,14.10
2019-03-30T21:38:36.112Z,13.68
2019-03-30T21:41:07.959Z,14.87
2019-03-30T21:43:39.803Z,14.50
2019-03-30T21:46:13.294Z,13.05
2019-03-30T21:48:45.311Z,12.73
2019-03-30T21:51:17.284Z,13.75
2019-03-30T21:53:50.191Z,14.40
2019-03-30T21:56:22.040Z,14.95
2019-03-30T21:58:53.871Z,15.60
2019-03-30T22:01:25.711Z,16.32
2019-03-30T22:03:58.795Z,14.28
2019-03-30T22:06:30.609Z,11.80
2019-03-30T22:09:05.772Z,14.10
2019-03-30T22:11:37.930Z,14.35
2019-03-30T22:14:09.784Z,16.82
2019-03-30T22:16:41.669Z,15.85
2019-03-30T22:19:13.458Z,17.55
2019-03-30T22:21:45.300Z,18.00
2019-03-30T22:24:17.095Z,17.40
2019-03-30T22:26:48.848Z,17.32
2019-03-30T22:29:20.604Z,17.52
2019-03-30T22:31:52.418Z,15.90
2019-03-30T22:34:24.221Z,15.90
2019-03-30T22:36:55.972Z,15.55
2019-03-30T22:39:28.204Z,15.55
2019-03-30T22:42:00.061Z,15.38
2019-03-30T22:44:32.920Z,14.35
2019-03-30T22:47:05.930Z,13.95
2019-03-30T22:49:38.118Z,14.40
2019-03-30T22:52:09.937Z,13.35
2019-03-30T22:54:41.736Z,13.05
2019-03-30T22:57:13.570Z,13.43
2019-03-30T22:59:45.726Z,12.93
2019-03-30T23:02:17.502Z,13.35
2019-03-30T23:04:49.293Z,12.53
2019-03-30T23:07:21.186Z,12.55
2019-03-30T23:09:52.909Z,13.83
2019-03-30T23:12:24.661Z,11.50
2019-03-30T23:14:57.929Z,12.35
2019-03-30T23:17:29.744Z,12.88
2019-03-30T23:20:02.562Z,13.58
2019-03-30T23:22:34.342Z,13.00
2019-03-30T23:25:06.284Z,12.85
2019-03-30T23:27:38.051Z,12.35
2019-03-30T23:30:09.872Z,14.80
2019-03-30T23:32:41.613Z,14.40
2019-03-30T23:35:13.543Z,15.70
2019-03-30T23:37:45.287Z,17.77
2019-03-30T23:40:17.018Z,17.82
2019-03-30T23:42:48.756Z,15.58
2019-03-30T23:45:20.678Z,17.60
2019-03-30T23:47:52.843Z,14.55
2019-03-30T23:50:24.586Z,13.80
2019-03-30T23:52:56.418Z,12.15
2019-03-30T23:55:28.163Z,11.97
2019-03-30T23:57:59.885Z,12.50
